createdAt,value
2019-04-23T00:02:39.277Z,8.80
2019-04-23T00:05:08.316Z,8.80
2019-04-23T00:07:48.461Z,9.73
2019-04-23T00:10:19.534Z,9.97
2019-04-23T00:15:16.796Z,9.57
2019-04-23T00:17:48.407Z,9.50
2019-04-23T00:20:22.035Z,8.83
2019-04-23T00:23:11.091Z,10.10
2019-04-23T00:26:13.001Z,9.60
2019-04-23T00:28:31.386Z,9.50
2019-04-23T00:33:31.393Z,8.60
2019-04-23T00:36:02.719Z,9.00
2019-04-23T00:43:54.732Z,8.60
2019-04-23T00:46:11.443Z,8.10
2019-04-23T00:48:53.088Z,8.90
2019-04-23T00:51:18.175Z,9.00
2019-04-23T00:53:37.152Z,8.33
2019-04-23T00:56:31.907Z,8.23
2019-04-23T00:58:50.620Z,8.07
2019-04-23T01:01:18.598Z,8.40
2019-04-23T01:03:55.237Z,7.90
2019-04-23T01:08:52.400Z,8.60
2019-04-23T01:11:25.309Z,8.47
2019-04-23T01:13:57.559Z,7.50
2019-04-23T01:16:28.272Z,8.23
2019-04-23T01:19:12.217Z,8.63
2019-04-23T01:21:30.704Z,7.90
2019-04-23T01:24:23.209Z,8.50
2019-04-23T01:32:54.894Z,8.20
2019-04-23T01:35:16.030Z,8.67
2019-04-23T01:40:20.235Z,9.10
2019-04-23T01:50:34.509Z,8.50
2019-04-23T01:53:08.591Z,9.20
2019-04-23T01:55:45.504Z,7.70
2019-04-23T02:00:39.206Z,9.10
2019-04-23T02:05:56.869Z,10.00
2019-04-23T02:08:08.302Z,9.23
2019-04-23T02:13:16.521Z,8.70
2019-04-23T02:15:47.732Z,9.67
2019-04-23T02:18:16.327Z,7.83
2019-04-23T02:21:04.695Z,9.43
2019-04-23T02:26:07.753Z,9.67
2019-04-23T02:28:38.835Z,10.00
2019-04-23T02:34:07.293Z,10.43
2019-04-23T02:38:52.274Z,10.33
2019-04-23T02:43:59.233Z,10.27
2019-04-23T02:46:17.455Z,10.00
2019-04-23T02:49:00.092Z,10.20
2019-04-23T02:54:19.749Z,11.13
2019-04-23T02:56:37.609Z,10.20
2019-04-23T02:59:16.406Z,10.10
2019-04-23T03:01:29.833Z,10.37
2019-04-23T03:04:16.812Z,10.50
2019-04-23T03:09:12.957Z,10.73
2019-04-23T03:12:00.685Z,10.17
2019-04-23T03:19:32.276Z,12.20
2019-04-23T03:22:09.421Z,11.63
2019-04-23T03:25:03.917Z,11.03
2019-04-23T03:40:01.921Z,11.03
2019-04-23T03:42:47.556Z,10.90
2019-04-23T03:57:49.426Z,12.90
2019-04-23T04:00:24.857Z,12.60
2019-04-23T04:03:10.315Z,11.37
2019-04-23T04:05:32.809Z,10.90
2019-04-23T04:08:00.711Z,11.13
2019-04-23T04:10:31.614Z,11.43
2019-04-23T04:15:43.803Z,12.17
2019-04-23T04:18:11.050Z,10.90
2019-04-23T04:20:43.488Z,11.50
2019-04-23T04:28:12.055Z,11.43
2019-04-23T04:30:49.110Z,11.77
2019-04-23T04:36:07.872Z,12.77
2019-04-23T04:38:38.707Z,11.10
2019-04-23T04:43:37.787Z,11.33
2019-04-23T04:46:12.431Z,11.80
2019-04-23T04:48:35.371Z,11.17
2019-04-23T04:51:16.426Z,12.93
2019-04-23T04:53:58.121Z,11.80
2019-04-23T04:56:16.815Z,11.67
2019-04-23T04:58:53.295Z,11.97
2019-04-23T05:03:29.142Z,10.90
2019-04-23T05:08:51.138Z,11.20
2019-04-23T05:11:26.304Z,10.77
2019-04-23T05:16:19.721Z,10.13
2019-04-23T05:24:08.560Z,10.40
2019-04-23T05:26:37.567Z,10.17
2019-04-23T05:29:11.446Z,9.90
2019-04-23T05:31:42.749Z,10.70
2019-04-23T05:34:16.960Z,10.73
2019-04-23T05:36:54.187Z,10.33
2019-04-23T05:42:14.257Z,10.53
2019-04-23T05:44:48.043Z,10.60
2019-04-23T05:47:23.201Z,9.27
2019-04-23T05:49:45.428Z,9.73
2019-04-23T05:52:17.669Z,9.53
2019-04-23T05:57:20.048Z,9.53
2019-04-23T06:02:26.650Z,9.90
2019-04-23T06:04:57.338Z,10.40
2019-04-23T06:12:31.315Z,9.37
2019-04-23T06:15:05.245Z,9.43
2019-04-23T06:17:56.419Z,9.10
2019-04-23T06:20:09.257Z,10.30
2019-04-23T06:22:46.002Z,9.93
2019-04-23T06:25:21.506Z,9.53
2019-04-23T06:27:49.496Z,9.00
2019-04-23T06:30:24.059Z,10.07
2019-04-23T06:32:42.815Z,10.10
2019-04-23T06:35:16.734Z,9.10
2019-04-23T06:38:14.118Z,10.30
2019-04-23T06:40:22.209Z,9.80
2019-04-23T06:43:11.564Z,10.07
2019-04-23T06:45:40.370Z,9.47
2019-04-23T06:50:48.839Z,9.20
2019-04-23T06:53:12.496Z,9.83
2019-04-23T06:55:49.466Z,10.50
2019-04-23T06:58:26.270Z,11.37
2019-04-23T07:00:59.159Z,10.47
2019-04-23T07:03:31.196Z,9.90
2019-04-23T07:06:27.018Z,10.20
2019-04-23T07:09:05.265Z,9.13
2019-04-23T07:13:58.625Z,10.03
2019-04-23T07:16:30.929Z,9.10
2019-04-23T07:18:54.575Z,9.60
2019-04-23T07:21:28.918Z,10.07
2019-04-23T07:26:36.334Z,10.73
2019-04-23T07:28:59.674Z,9.97
2019-04-23T07:31:37.945Z,9.97
2019-04-23T07:36:40.586Z,9.27
2019-04-23T07:39:35.572Z,8.90
2019-04-23T07:42:09.350Z,9.33
2019-04-23T07:47:36.394Z,8.10
2019-04-23T07:50:19.215Z,8.63
2019-04-23T07:52:41.018Z,9.97
2019-04-23T07:55:13.754Z,8.47
2019-04-23T07:57:41.945Z,8.07
2019-04-23T08:00:09.302Z,10.10
2019-04-23T08:02:33.585Z,7.60
2019-04-23T08:05:22.862Z,8.27
2019-04-23T08:07:49.420Z,7.77
2019-04-23T08:10:24.261Z,7.53
2019-04-23T08:12:55.605Z,8.07
2019-04-23T08:15:23.031Z,9.00
2019-04-23T08:17:54.208Z,8.53
2019-04-23T08:20:32.313Z,8.20
2019-04-23T08:23:01.929Z,7.87
2019-04-23T08:26:00.569Z,7.93
2019-04-23T08:28:37.180Z,8.67
2019-04-23T08:30:53.386Z,8.17
2019-04-23T08:33:24.997Z,9.27
2019-04-23T08:36:07.284Z,7.80
2019-04-23T08:38:29.435Z,8.83
2019-04-23T08:41:10.576Z,7.60
2019-04-23T08:43:42.766Z,7.67
2019-04-23T08:46:33.589Z,7.50
2019-04-23T08:49:06.634Z,8.20
2019-04-23T08:54:02.995Z,7.37
2019-04-23T08:56:42.814Z,8.17
2019-04-23T08:59:07.185Z,8.53
2019-04-23T09:01:52.820Z,7.47
2019-04-23T09:04:09.830Z,8.03
2019-04-23T09:06:38.755Z,7.80
2019-04-23T09:09:13.094Z,8.33
2019-04-23T09:11:45.936Z,7.87
2019-04-23T09:14:20.025Z,7.80
2019-04-23T09:16:54.239Z,5.63
2019-04-23T09:19:23.699Z,5.50
2019-04-23T09:22:04.111Z,5.60
2019-04-23T09:24:29.607Z,4.60
2019-04-23T09:26:58.674Z,4.13
2019-04-23T09:29:32.201Z,4.07
2019-04-23T09:37:49.221Z,4.57
2019-04-23T09:40:31.813Z,4.37
2019-04-23T09:45:50.180Z,5.80
2019-04-23T09:48:11.873Z,5.20
2019-04-23T09:50:57.016Z,5.10
2019-04-23T09:53:35.324Z,4.73
2019-04-23T09:55:45.609Z,4.73
2019-04-23T10:03:47.537Z,5.23
2019-04-23T10:06:14.868Z,4.80
2019-04-23T10:08:47.499Z,5.30
2019-04-23T10:11:13.856Z,4.90
2019-04-23T10:13:45.062Z,5.37
2019-04-23T10:16:19.421Z,5.07
2019-04-23T10:18:49.102Z,5.60
2019-04-23T10:21:39.448Z,5.10
2019-04-23T10:24:10.002Z,5.90
2019-04-23T10:26:40.044Z,4.50
2019-04-23T10:29:15.942Z,5.10
2019-04-23T10:31:46.142Z,5.23
2019-04-23T10:34:17.023Z,5.43
2019-04-23T10:36:47.374Z,4.83
2019-04-23T10:39:23.262Z,5.67
2019-04-23T10:41:50.971Z,5.53
2019-04-23T10:44:26.826Z,5.20
2019-04-23T10:48:03.620Z,4.93
2019-04-23T10:50:57.186Z,5.70
2019-04-23T10:56:00.672Z,5.73
2019-04-23T11:01:05.092Z,5.53
2019-04-23T11:03:49.296Z,5.70
2019-04-23T11:08:36.152Z,5.80
2019-04-23T11:11:16.079Z,6.73
2019-04-23T11:13:48.780Z,6.83
2019-04-23T11:16:45.230Z,7.07
2019-04-23T11:26:31.848Z,8.20
2019-04-23T11:28:51.515Z,8.00
2019-04-23T11:31:39.140Z,8.50
2019-04-23T11:36:53.810Z,7.33
2019-04-23T11:38:02.677Z,7.43
2019-04-23T11:38:58.463Z,6.47
2019-04-23T11:44:17.029Z,8.53
2019-04-23T11:54:17.875Z,6.50
2019-04-23T11:59:29.701Z,7.80
2019-04-23T12:02:29.667Z,7.87
2019-04-23T12:07:43.767Z,8.17
2019-04-23T12:10:29.232Z,8.57
2019-04-23T12:12:44.650Z,7.77
2019-04-23T12:18:11.001Z,7.13
2019-04-23T12:20:33.584Z,7.03
2019-04-23T12:23:20.216Z,7.97
2019-04-23T12:25:31.173Z,7.20
2019-04-23T12:28:01.436Z,7.77
2019-04-23T12:30:40.788Z,8.33
2019-04-23T12:33:32.172Z,7.23
2019-04-23T12:35:32.520Z,7.13
2019-04-23T12:40:38.188Z,6.93
2019-04-23T12:43:19.155Z,7.40
2019-04-23T12:45:43.952Z,7.30
2019-04-23T12:55:57.949Z,7.10
2019-04-23T12:58:26.982Z,7.20
2019-04-23T13:00:51.404Z,8.30
2019-04-23T13:03:31.389Z,8.73
2019-04-23T13:05:55.497Z,7.97
2019-04-23T13:08:38.811Z,7.50
2019-04-23T13:11:07.941Z,8.03
2019-04-23T13:16:17.873Z,7.77
2019-04-23T13:18:48.431Z,7.50
2019-04-23T13:21:38.477Z,7.50
2019-04-23T13:23:45.846Z,8.20
2019-04-23T13:26:18.382Z,8.03
2019-04-23T13:28:52.858Z,7.20
2019-04-23T13:31:26.619Z,8.30
2019-04-23T13:33:57.575Z,8.20
2019-04-23T13:39:02.060Z,8.07
2019-04-23T13:41:34.862Z,7.43
2019-04-23T13:44:00.260Z,8.73
2019-04-23T13:49:07.672Z,7.53
2019-04-23T13:51:39.457Z,7.33
2019-04-23T13:54:52.195Z,8.47
2019-04-23T13:57:16.168Z,7.90
2019-04-23T13:59:29.800Z,8.83
2019-04-23T14:01:46.659Z,9.30
2019-04-23T14:07:24.902Z,8.87
2019-04-23T14:09:54.866Z,8.30
2019-04-23T14:12:30.628Z,8.10
2019-04-23T14:15:12.707Z,8.17
2019-04-23T14:17:37.449Z,8.37
2019-04-23T14:20:05.693Z,9.83
2019-04-23T14:27:51.915Z,9.40
2019-04-23T14:32:46.883Z,8.70
2019-04-23T14:35:25.466Z,9.13
2019-04-23T14:38:01.624Z,8.30
2019-04-23T14:40:26.549Z,8.47
2019-04-23T14:50:39.907Z,9.90
2019-04-23T14:58:33.774Z,9.17
2019-04-23T15:01:07.511Z,8.80
2019-04-23T15:03:26.948Z,9.90
2019-04-23T15:06:04.855Z,10.27
2019-04-23T15:08:30.360Z,9.83
2019-04-23T15:11:13.079Z,9.60
2019-04-23T15:13:27.872Z,8.83
2019-04-23T15:16:07.972Z,9.43
2019-04-23T15:18:44.501Z,9.33
2019-04-23T15:21:27.753Z,8.73
2019-04-23T15:27:08.541Z,8.67
2019-04-23T15:28:20.265Z,8.50
2019-04-23T15:31:19.377Z,8.60
2019-04-23T15:33:57.322Z,9.83
2019-04-23T15:36:32.535Z,9.23
2019-04-23T15:43:57.753Z,9.70
2019-04-23T15:46:41.148Z,8.73
2019-04-23T15:49:11.155Z,9.57
2019-04-23T15:54:07.906Z,10.50
2019-04-23T15:56:50.574Z,9.33
2019-04-23T16:01:35.156Z,10.37
2019-04-23T16:03:41.901Z,9.80
2019-04-23T16:06:14.203Z,10.60
2019-04-23T16:09:06.349Z,10.40
2019-04-23T16:16:51.600Z,11.57
2019-04-23T16:19:52.914Z,10.83
2019-04-23T16:22:32.109Z,10.90
2019-04-23T16:24:55.574Z,10.70
2019-04-23T16:27:21.484Z,10.67
2019-04-23T16:30:12.771Z,11.57
2019-04-23T16:38:01.398Z,11.00
2019-04-23T16:40:31.882Z,10.77
2019-04-23T16:43:03.773Z,10.60
2019-04-23T16:45:45.930Z,10.20
2019-04-23T16:48:09.350Z,11.20
2019-04-23T16:50:41.423Z,10.83
2019-04-23T16:53:11.129Z,11.40
2019-04-23T16:55:37.718Z,11.37
2019-04-23T17:00:51.619Z,11.90
2019-04-23T17:03:19.368Z,11.60
2019-04-23T17:05:50.653Z,11.37
2019-04-23T17:08:35.459Z,11.43
2019-04-23T17:10:53.343Z,12.20
2019-04-23T17:13:20.181Z,11.60
2019-04-23T17:16:00.230Z,12.53
2019-04-23T17:18:24.807Z,12.80
2019-04-23T17:23:39.557Z,11.77
2019-04-23T17:26:06.011Z,12.23
2019-04-23T17:28:31.037Z,12.97
2019-04-23T17:31:26.318Z,11.50
2019-04-23T17:33:43.778Z,12.57
2019-04-23T17:39:02.781Z,11.70
2019-04-23T17:41:48.488Z,11.40
2019-04-23T17:44:25.679Z,11.77
2019-04-23T17:49:15.218Z,12.53
2019-04-23T17:51:49.449Z,12.13
2019-04-23T17:54:24.607Z,11.80
2019-04-23T17:57:01.478Z,12.17
2019-04-23T18:00:03.286Z,11.40
2019-04-23T18:02:46.853Z,12.10
2019-04-23T18:04:57.759Z,12.40
2019-04-23T18:07:36.342Z,11.40
2019-04-23T18:09:57.084Z,12.20
2019-04-23T18:12:36.099Z,12.00
2019-04-23T18:14:52.724Z,12.47
2019-04-23T18:17:34.295Z,12.07
2019-04-23T18:20:19.613Z,13.00
2019-04-23T18:22:56.664Z,12.90
2019-04-23T18:27:55.118Z,12.57
2019-04-23T18:31:06.068Z,12.50
2019-04-23T18:36:19.749Z,12.37
2019-04-23T18:38:53.240Z,12.80
2019-04-23T18:41:17.532Z,12.50
2019-04-23T18:43:58.901Z,14.13
2019-04-23T18:46:33.469Z,12.40
2019-04-23T18:48:54.642Z,14.40
2019-04-23T18:51:36.997Z,13.60
2019-04-23T18:53:52.998Z,12.90
2019-04-23T18:56:51.481Z,14.33
2019-04-23T18:59:16.243Z,13.93
2019-04-23T19:02:00.697Z,14.27
2019-04-23T19:04:42.324Z,14.43
2019-04-23T19:07:16.009Z,13.30
2019-04-23T19:15:37.188Z,14.27
2019-04-23T19:18:00.717Z,13.27
2019-04-23T19:25:38.787Z,13.60
2019-04-23T19:28:34.539Z,13.27
2019-04-23T19:31:26.127Z,12.70
2019-04-23T19:36:54.639Z,11.60
2019-04-23T19:41:55.417Z,12.07
2019-04-23T19:44:22.200Z,12.17
2019-04-23T19:51:53.650Z,12.20
2019-04-23T19:54:37.844Z,11.80
2019-04-23T19:56:55.250Z,11.00
2019-04-23T19:59:40.983Z,10.60
2019-04-23T20:04:39.323Z,10.50
2019-04-23T20:12:06.040Z,10.13
2019-04-23T20:22:31.434Z,9.80
2019-04-23T20:25:18.869Z,9.93
2019-04-23T20:33:21.005Z,9.37
2019-04-23T20:35:11.316Z,9.60
2019-04-23T20:40:25.891Z,9.33
2019-04-23T20:42:53.348Z,8.87
2019-04-23T20:45:27.372Z,9.17
2019-04-23T20:47:57.402Z,9.67
2019-04-23T20:50:31.520Z,9.70
2019-04-23T20:52:57.479Z,9.10
2019-04-23T20:55:46.944Z,9.40
2019-04-23T20:58:15.232Z,9.17
2019-04-23T21:01:09.645Z,8.40
2019-04-23T21:06:09.817Z,8.73
2019-04-23T21:09:06.752Z,8.20
2019-04-23T21:11:04.858Z,9.23
2019-04-23T21:14:01.873Z,8.97
2019-04-23T21:16:13.135Z,9.23
2019-04-23T21:21:18.249Z,8.20
2019-04-23T21:23:56.747Z,9.50
2019-04-23T21:26:20.059Z,7.90
2019-04-23T21:29:05.039Z,8.90
2019-04-23T21:31:47.712Z,8.93
2019-04-23T21:34:18.886Z,7.07
2019-04-23T21:37:15.812Z,8.87
2019-04-23T21:40:01.211Z,8.17
2019-04-23T21:42:32.722Z,8.93
2019-04-23T21:44:57.968Z,8.70
2019-04-23T21:47:41.310Z,8.93
2019-04-23T21:50:19.134Z,9.37
2019-04-23T21:52:34.056Z,7.77
2019-04-23T21:55:02.458Z,8.63
2019-04-23T21:57:46.393Z,9.73
2019-04-23T22:02:45.582Z,8.50
2019-04-23T22:05:17.935Z,9.73
2019-04-23T22:07:51.672Z,8.60
2019-04-23T22:10:15.339Z,8.90
2019-04-23T22:13:02.216Z,8.93
2019-04-23T22:15:15.666Z,9.13
2019-04-23T22:20:27.778Z,9.83
2019-04-23T22:25:25.309Z,8.80
2019-04-23T22:27:58.158Z,9.37
2019-04-23T22:30:30.745Z,8.70
2019-04-23T22:33:07.170Z,8.73
2019-04-23T22:35:35.096Z,8.60
2019-04-23T22:40:34.551Z,9.67
2019-04-23T22:43:22.211Z,8.43
2019-04-23T22:45:48.487Z,9.63
2019-04-23T22:48:14.487Z,9.30
2019-04-23T22:50:56.789Z,9.17
2019-04-23T22:53:10.949Z,8.67
2019-04-23T22:55:57.258Z,8.50
2019-04-23T22:58:37.439Z,8.73
2019-04-23T23:01:20.082Z,8.60
2019-04-23T23:04:13.703Z,8.27
2019-04-23T23:09:44.730Z,8.67
2019-04-23T23:12:13.823Z,7.60
2019-04-23T23:14:47.481Z,7.63
2019-04-23T23:17:11.781Z,8.40
2019-04-23T23:20:01.143Z,7.80
2019-04-23T23:22:40.147Z,6.73
2019-04-23T23:24:56.470Z,7.50
2019-04-23T23:27:23.694Z,6.30
2019-04-23T23:30:05.154Z,7.13
2019-04-23T23:32:24.517Z,6.23
2019-04-23T23:35:12.584Z,6.37
2019-04-23T23:37:28.416Z,6.10
2019-04-23T23:40:05.029Z,6.63
2019-04-23T23:42:35.120Z,7.00
2019-04-23T23:45:12.870Z,7.13
2019-04-23T23:47:28.898Z,7.27
2019-04-23T23:50:14.755Z,6.27
2019-04-23T23:52:49.879Z,7.40
2019-04-23T23:57:46.373Z,6.43
